Time;durP1;ratioP1;P1;durP2;ratioP2;P2;SDS_P1;SDS_P2;PMS_P1;PMS_P2;Temp;Humidity;BMP_temperature;BMP_pressure;BME280_temperature;BME280_humidity;BME280_pressure;Samples;Min_cycle;Max_cycle;Signal;HPM_P1;HPM_P2
2023/12/23 06:01:54;;;;;;;;;;;;;;;;;;5331362;23;19933;-50
2023/12/23 06:04:21;;;;;;;;;;;;;;;;;;4972584;28;20001;-51
2023/12/23 06:06:47;;;;;;;;;;;;;;;;;;4972978;28;20345;-51
2023/12/23 06:09:13;;;;;;;;;;;;;;;;;;4974772;28;20040;-48
2023/12/23 06:11:39;;;;;;;;;;;;;;;;;;4991464;28;19918;-50
2023/12/23 06:14:05;;;;;;;;;;;;;;;;;;4991632;28;19910;-50
2023/12/23 06:16:31;;;;;;;;;;;;;;;;;;4990774;28;20403;-50
2023/12/23 06:18:57;;;;;;;;;;;;;;;;;;4990577;28;19914;-49
2023/12/23 06:21:23;;;;;;;;;;;;;;;;;;4991972;28;20438;-51
2023/12/23 06:23:49;;;;;;;;;;;;;;;;;;4991591;28;19917;-50
2023/12/23 06:26:15;;;;;;;;;;;;;;;;;;4992143;28;20369;-48
2023/12/23 06:28:41;;;;;;;;;;;;;;;;;;4991673;28;19949;-51
2023/12/23 06:31:06;;;;;;;;;;;;;;;;;;4991867;28;19910;-49
2023/12/23 06:33:32;;;;;;;;;;;;;;;;;;4990680;28;19937;-48
2023/12/23 06:35:58;;;;;;;;;;;;;;;;;;4991885;28;20000;-51
2023/12/23 06:38:24;;;;;;;;;;;;;;;;;;4991489;28;19917;-50
2023/12/23 06:40:50;;;;;;;;;;;;;;;;;;4991885;28;19953;-49
2023/12/23 06:43:16;;;;;;;;;;;;;;;;;;4990712;28;19914;-51
2023/12/23 06:45:42;;;;;;;;;;;;;;;;;;4991506;28;20284;-52
2023/12/23 06:48:08;;;;;;;;;;;;;;;;;;4991613;28;20415;-50
2023/12/23 06:50:34;;;;;;;;;;;;;;;;;;4991168;28;20436;-51
2023/12/23 06:53:00;;;;;;;;;;;;;;;;;;4991501;28;19913;-51
2023/12/23 06:55:26;;;;;;;;;;;;;;;;;;4991092;28;19913;-47
2023/12/23 06:57:53;;;;;;;;;;;;;;;;;;4990690;28;19992;-52
2023/12/23 07:00:19;;;;;;;;;;;;;;;;;;4987532;28;20412;-50
2023/12/23 07:02:45;;;;;;;;;;;;;;;;;;4988674;28;20006;-51
2023/12/23 07:05:11;;;;;;;;;;;;;;;;;;4991051;28;19921;-51
2023/12/23 07:07:37;;;;;;;;;;;;;;;;;;4991221;28;19914;-51
2023/12/23 07:10:03;;;;;;;;;;;;;;;;;;4982675;28;20388;-52
2023/12/23 07:12:29;;;;;;;;;;;;;;;;;;4971618;28;20044;-51
2023/12/23 07:14:55;;;;;;;;;;;;;;;;;;4974208;28;19918;-52
2023/12/23 07:17:21;;;;;;;;;;;;;;;;;;4990262;28;19945;-52
2023/12/23 07:19:47;;;;;;;;;;;;;;;;;;4973751;28;20376;-52
2023/12/23 07:22:13;;;;;;;;;;;;;;;;;;4988087;28;19910;-53
2023/12/23 07:24:39;;;;;;;;;;;;;;;;;;4986911;28;19914;-52
2023/12/23 07:27:05;;;;;;;;;;;;;;;;;;4989499;28;19921;-53
2023/12/23 07:29:30;;;;;;;;;;;;;;;;;;4990850;28;20300;-51
2023/12/23 07:31:56;;;;;;;;;;;;;;;;;;4985199;28;19915;-52
2023/12/23 07:34:22;;;;;;;;;;;;;;;;;;4984722;28;20008;-51
2023/12/23 07:36:48;;;;;;;;;;;;;;;;;;4991850;28;19914;-50
2023/12/23 07:39:14;;;;;;;;;;;;;;;;;;4982804;28;20324;-50
2023/12/23 07:41:40;;;;;;;;;;;;;;;;;;4989223;28;19945;-52
2023/12/23 07:44:06;;;;;;;;;;;;;;;;;;4988620;28;19996;-52
2023/12/23 07:46:32;;;;;;;;;;;;;;;;;;4980432;28;19924;-52
2023/12/23 07:48:58;;;;;;;;;;;;;;;;;;4977457;28;19941;-50
2023/12/23 07:51:23;;;;;;;;;;;;;;;;;;4975210;28;19914;-52
2023/12/23 07:53:49;;;;;;;;;;;;;;;;;;4987564;28;19914;-50
2023/12/23 07:56:15;;;;;;;;;;;;;;;;;;4991291;28;20392;-50
2023/12/23 07:58:41;;;;;;;;;;;;;;;;;;4988777;28;20351;-50
2023/12/23 08:01:08;;;;;;;;;;;;;;;;;;4991891;28;20335;-49
2023/12/23 08:03:34;;;;;;;;;;;;;;;;;;4993100;28;20004;-53
2023/12/23 08:06:00;;;;;;;;;;;;;;;;;;4992825;28;20005;-49
2023/12/23 08:08:26;;;;;;;;;;;;;;;;;;4993052;28;19936;-52
2023/12/23 08:10:54;;;;;;;;;;;;;;;;;;4985321;28;19921;-53
2023/12/23 08:13:20;;;;;;;;;;;;;;;;;;4981594;28;19922;-51
2023/12/23 08:15:46;;;;;;;;;;;;;;;;;;4984344;28;19941;-48
2023/12/23 08:18:12;;;;;;;;;;;;;;;;;;4991665;28;20352;-52
2023/12/23 08:20:38;;;;;;;;;;;;;;;;;;4992160;28;19914;-51
2023/12/23 08:23:04;;;;;;;;;;;;;;;;;;4990089;28;19949;-50
2023/12/23 08:25:30;;;;;;;;;;;;;;;;;;4978216;28;19911;-52
2023/12/23 08:27:56;;;;;;;;;;;;;;;;;;4984839;28;19922;-52
2023/12/23 08:30:22;;;;;;;;;;;;;;;;;;4973230;28;19992;-49
2023/12/23 08:32:47;;;;;;;;;;;;;;;;;;4972774;28;19915;-49
2023/12/23 08:35:14;;;;;;;;;;;;;;;;;;4972793;28;19910;-51
2023/12/23 08:37:40;;;;;;;;;;;;;;;;;;4972672;28;19910;-48
2023/12/23 08:40:06;;;;;;;;;;;;;;;;;;4975746;28;19914;-48
2023/12/23 08:42:32;;;;;;;;;;;;;;;;;;4992673;28;19953;-53
2023/12/23 08:44:57;;;;;;;;;;;;;;;;;;4991349;28;19918;-52
2023/12/23 08:47:23;;;;;;;;;;;;;;;;;;4992724;28;19937;-50
2023/12/23 08:49:49;;;;;;;;;;;;;;;;;;4992577;28;20354;-51
2023/12/23 08:52:15;;;;;;;;;;;;;;;;;;4992820;28;19914;-52
2023/12/23 08:54:41;;;;;;;;;;;;;;;;;;4992340;28;19921;-51
2023/12/23 08:57:07;;;;;;;;;;;;;;;;;;4992440;28;19917;-50
2023/12/23 08:59:33;;;;;;;;;;;;;;;;;;4992925;28;19917;-51
2023/12/23 09:02:02;;;;;;;;;;;;;;;;;;4992482;28;20399;-51
2023/12/23 09:04:28;;;;;;;;;;;;;;;;;;4992657;28;19960;-52
2023/12/23 09:06:54;;;;;;;;;;;;;;;;;;4991629;28;19914;-50
2023/12/23 09:09:20;;;;;;;;;;;;;;;;;;4992586;28;19910;-51
2023/12/23 09:11:46;;;;;;;;;;;;;;;;;;4990482;28;19914;-51
2023/12/23 09:14:12;;;;;;;;;;;;;;;;;;4991446;28;19940;-52
2023/12/23 09:16:38;;;;;;;;;;;;;;;;;;4982052;28;19910;-51
2023/12/23 09:19:04;;;;;;;;;;;;;;;;;;4977064;28;20244;-50
2023/12/23 09:21:31;;;;;;;;;;;;;;;;;;4989744;28;20020;-52
2023/12/23 09:23:56;;;;;;;;;;;;;;;;;;4990451;28;20392;-48
2023/12/23 09:26:24;;;;;;;;;;;;;;;;;;4991040;28;19914;-51
2023/12/23 09:28:50;;;;;;;;;;;;;;;;;;4989854;28;19913;-52
2023/12/23 09:31:16;;;;;;;;;;;;;;;;;;4991368;28;19918;-52
2023/12/23 09:33:42;;;;;;;;;;;;;;;;;;4992792;28;19953;-52
2023/12/23 09:36:07;;;;;;;;;;;;;;;;;;4991660;28;20403;-53
2023/12/23 09:38:33;;;;;;;;;;;;;;;;;;4990649;28;19910;-52
2023/12/23 09:40:59;;;;;;;;;;;;;;;;;;4991684;28;19910;-51
2023/12/23 09:43:25;;;;;;;;;;;;;;;;;;4990939;28;19928;-53
2023/12/23 09:45:51;;;;;;;;;;;;;;;;;;4991688;28;20265;-52
2023/12/23 09:48:17;;;;;;;;;;;;;;;;;;4991604;28;19914;-51
2023/12/23 09:50:43;;;;;;;;;;;;;;;;;;4992184;28;19913;-49
2023/12/23 09:53:09;;;;;;;;;;;;;;;;;;4990435;28;19909;-52
2023/12/23 09:55:35;;;;;;;;;;;;;;;;;;4991367;28;20028;-50
2023/12/23 09:58:01;;;;;;;;;;;;;;;;;;4991250;28;20336;-49
2023/12/23 10:00:27;;;;;;;;;;;;;;;;;;4990982;28;20329;-50
2023/12/23 10:02:52;;;;;;;;;;;;;;;;;;4991321;28;20002;-51
2023/12/23 10:05:18;;;;;;;;;;;;;;;;;;4981988;28;19957;-53
2023/12/23 10:07:44;;;;;;;;;;;;;;;;;;4972527;28;19921;-52
2023/12/23 10:10:10;;;;;;;;;;;;;;;;;;4971606;28;19910;-52
2023/12/23 10:12:36;;;;;;;;;;;;;;;;;;4971605;28;19997;-52
2023/12/23 10:15:02;;;;;;;;;;;;;;;;;;4971758;28;19914;-52
2023/12/23 10:17:28;;;;;;;;;;;;;;;;;;4971532;28;19917;-51
2023/12/23 10:19:55;;;;;;;;;;;;;;;;;;4971584;28;20052;-50
2023/12/23 10:22:21;;;;;;;;;;;;;;;;;;4971480;28;19918;-52
2023/12/23 10:24:47;;;;;;;;;;;;;;;;;;4971782;28;19910;-51
2023/12/23 10:27:13;;;;;;;;;;;;;;;;;;4971741;28;20505;-52
2023/12/23 10:29:39;;;;;;;;;;;;;;;;;;4971522;28;19965;-50
2023/12/23 10:32:05;;;;;;;;;;;;;;;;;;4971437;28;20455;-52
2023/12/23 10:34:31;;;;;;;;;;;;;;;;;;4971383;28;19912;-51
2023/12/23 10:36:56;;;;;;;;;;;;;;;;;;4971318;28;19916;-51
2023/12/23 10:39:23;;;;;;;;;;;;;;;;;;4970998;28;19917;-52
2023/12/23 10:41:49;;;;;;;;;;;;;;;;;;4971238;28;20411;-52
2023/12/23 10:44:14;;;;;;;;;;;;;;;;;;4971869;28;19910;-52
2023/12/23 10:46:40;;;;;;;;;;;;;;;;;;4971180;28;19914;-52
2023/12/23 10:49:06;;;;;;;;;;;;;;;;;;4971016;28;19945;-52
2023/12/23 10:51:32;;;;;;;;;;;;;;;;;;4971256;28;20000;-52
2023/12/23 10:53:58;;;;;;;;;;;;;;;;;;4988046;28;20052;-52
2023/12/23 10:56:24;;;;;;;;;;;;;;;;;;4990380;28;19917;-53
2023/12/23 10:58:51;;;;;;;;;;;;;;;;;;4990374;28;19910;-53
2023/12/23 11:01:17;;;;;;;;;;;;;;;;;;4989697;28;20427;-51
2023/12/23 11:03:43;;;;;;;;;;;;;;;;;;4989807;28;19910;-52
2023/12/23 11:06:08;;;;;;;;;;;;;;;;;;4990259;28;19913;-53
2023/12/23 11:08:34;;;;;;;;;;;;;;;;;;4990251;28;19914;-52
2023/12/23 11:11:00;;;;;;;;;;;;;;;;;;4989943;28;20300;-49
2023/12/23 11:13:26;;;;;;;;;;;;;;;;;;4989655;28;19917;-52
2023/12/23 11:15:52;;;;;;;;;;;;;;;;;;4989420;28;19965;-51
2023/12/23 11:18:18;;;;;;;;;;;;;;;;;;4990607;28;19914;-52
2023/12/23 11:20:44;;;;;;;;;;;;;;;;;;4989348;28;19976;-47
2023/12/23 11:23:10;;;;;;;;;;;;;;;;;;4989964;28;19948;-51
2023/12/23 11:25:37;;;;;;;;;;;;;;;;;;4990084;28;19921;-52
2023/12/23 11:28:03;;;;;;;;;;;;;;;;;;4990328;28;20278;-52
2023/12/23 11:30:29;;;;;;;;;;;;;;;;;;4989601;28;19910;-51
2023/12/23 11:32:55;;;;;;;;;;;;;;;;;;4991006;28;19941;-50
2023/12/23 11:35:22;;;;;;;;;;;;;;;;;;4990067;28;19932;-50
2023/12/23 11:37:50;;;;;;;;;;;;;;;;;;4989501;28;20840;-51
2023/12/23 11:40:16;;;;;;;;;;;;;;;;;;4978478;28;19921;-52
2023/12/23 11:42:42;;;;;;;;;;;;;;;;;;4988903;28;20339;-49
2023/12/23 11:45:08;;;;;;;;;;;;;;;;;;4989875;28;19997;-51
2023/12/23 11:47:34;;;;;;;;;;;;;;;;;;4986335;28;19929;-51
2023/12/23 11:50:00;;;;;;;;;;;;;;;;;;4981866;28;19939;-51
2023/12/23 11:52:26;;;;;;;;;;;;;;;;;;4980786;28;20019;-52
2023/12/23 11:54:52;;;;;;;;;;;;;;;;;;4989508;28;19924;-51
2023/12/23 11:57:18;;;;;;;;;;;;;;;;;;4989067;28;20315;-49
2023/12/23 11:59:44;;;;;;;;;;;;;;;;;;4989824;28;19916;-52
2023/12/23 12:02:10;;;;;;;;;;;;;;;;;;4988849;28;19993;-49
2023/12/23 12:04:36;;;;;;;;;;;;;;;;;;4989518;28;19996;-50
2023/12/23 12:07:01;;;;;;;;;;;;;;;;;;4988856;28;19961;-51
2023/12/23 12:09:27;;;;;;;;;;;;;;;;;;4989608;28;20358;-47
2023/12/23 12:11:53;;;;;;;;;;;;;;;;;;4980129;28;19914;-51
2023/12/23 12:14:19;;;;;;;;;;;;;;;;;;4989658;28;20384;-51
2023/12/23 12:16:45;;;;;;;;;;;;;;;;;;4991792;28;19941;-51
2023/12/23 12:19:13;;;;;;;;;;;;;;;;;;4992475;28;19917;-52
2023/12/23 12:21:39;;;;;;;;;;;;;;;;;;4979605;28;19921;-51
2023/12/23 12:24:04;;;;;;;;;;;;;;;;;;4996678;28;19914;-50
2023/12/23 12:26:30;;;;;;;;;;;;;;;;;;4995035;28;20005;-51
2023/12/23 12:28:56;;;;;;;;;;;;;;;;;;4993308;28;19917;-53
2023/12/23 12:31:22;;;;;;;;;;;;;;;;;;4982579;28;19914;-53
2023/12/23 12:33:50;;;;;;;;;;;;;;;;;;4989832;28;19918;-49
2023/12/23 12:36:15;;;;;;;;;;;;;;;;;;4992884;28;19914;-48
2023/12/23 12:38:42;;;;;;;;;;;;;;;;;;4990668;28;19921;-53
2023/12/23 12:41:08;;;;;;;;;;;;;;;;;;4991470;28;19921;-50
2023/12/23 12:43:36;;;;;;;;;;;;;;;;;;4985564;28;19918;-52
2023/12/23 12:46:02;;;;;;;;;;;;;;;;;;4974170;28;19924;-53
2023/12/23 12:48:28;;;;;;;;;;;;;;;;;;4991563;28;19917;-52
2023/12/23 12:50:54;;;;;;;;;;;;;;;;;;4991760;28;19910;-54
2023/12/23 12:53:20;;;;;;;;;;;;;;;;;;4991122;28;19918;-53
2023/12/23 12:55:46;;;;;;;;;;;;;;;;;;4977203;28;19952;-51
2023/12/23 12:58:12;;;;;;;;;;;;;;;;;;4991883;28;19910;-51
2023/12/23 13:00:37;;;;;;;;;;;;;;;;;;4989912;28;19941;-52
2023/12/23 13:03:03;;;;;;;;;;;;;;;;;;4979803;28;19961;-53
2023/12/23 13:05:29;;;;;;;;;;;;;;;;;;4989142;28;19917;-53
2023/12/23 13:07:55;;;;;;;;;;;;;;;;;;4986928;28;19980;-54
2023/12/23 13:10:22;;;;;;;;;;;;;;;;;;4980351;28;19910;-54
2023/12/23 13:12:48;;;;;;;;;;;;;;;;;;4976040;28;19910;-52
2023/12/23 13:15:14;;;;;;;;;;;;;;;;;;4969961;28;19981;-52
2023/12/23 13:17:40;;;;;;;;;;;;;;;;;;4989258;28;20373;-52
2023/12/23 13:20:07;;;;;;;;;;;;;;;;;;4990817;28;19957;-53
2023/12/23 13:22:33;;;;;;;;;;;;;;;;;;4978215;28;20400;-53
2023/12/23 13:24:59;;;;;;;;;;;;;;;;;;4972413;28;19911;-53
2023/12/23 13:27:25;;;;;;;;;;;;;;;;;;4991115;28;20016;-53
2023/12/23 13:29:51;;;;;;;;;;;;;;;;;;4991129;28;20281;-53
2023/12/23 13:32:16;;;;;;;;;;;;;;;;;;4989858;28;19920;-52
2023/12/23 13:34:44;;;;;;;;;;;;;;;;;;4989948;28;20000;-52
2023/12/23 13:37:10;;;;;;;;;;;;;;;;;;4989082;28;19914;-53
2023/12/23 13:39:36;;;;;;;;;;;;;;;;;;4990640;28;19987;-53
2023/12/23 13:42:02;;;;;;;;;;;;;;;;;;4987228;28;19914;-53
2023/12/23 13:44:28;;;;;;;;;;;;;;;;;;4990287;28;19928;-51
2023/12/23 13:47:00;;;;;;;;;;;;;;;;;;4982723;28;19932;-52
2023/12/23 13:49:25;;;;;;;;;;;;;;;;;;4990397;28;19922;-51
2023/12/23 13:51:51;;;;;;;;;;;;;;;;;;4990907;28;19932;-52
2023/12/23 13:54:17;;;;;;;;;;;;;;;;;;4990480;28;19917;-52
2023/12/23 13:56:43;;;;;;;;;;;;;;;;;;4988508;28;20383;-52
2023/12/23 13:59:09;;;;;;;;;;;;;;;;;;4990263;28;19917;-50
2023/12/23 14:01:35;;;;;;;;;;;;;;;;;;4990061;28;19918;-49
2023/12/23 14:04:01;;;;;;;;;;;;;;;;;;4990167;28;19914;-52
2023/12/23 14:06:26;;;;;;;;;;;;;;;;;;4990426;28;20016;-54
2023/12/23 14:08:53;;;;;;;;;;;;;;;;;;4990514;28;19909;-52
2023/12/23 14:11:18;;;;;;;;;;;;;;;;;;4986582;28;19918;-54
2023/12/23 14:13:44;;;;;;;;;;;;;;;;;;4992544;28;20655;-51
2023/12/23 14:16:10;;;;;;;;;;;;;;;;;;4982751;28;19961;-53
2023/12/23 14:18:36;;;;;;;;;;;;;;;;;;4989232;28;19917;-54
2023/12/23 14:21:02;;;;;;;;;;;;;;;;;;4988901;28;19956;-52
2023/12/23 14:23:28;;;;;;;;;;;;;;;;;;4984702;28;19918;-51
2023/12/23 14:25:54;;;;;;;;;;;;;;;;;;4982983;28;19969;-52
2023/12/23 14:28:19;;;;;;;;;;;;;;;;;;4986323;28;19918;-51
2023/12/23 14:30:45;;;;;;;;;;;;;;;;;;4986579;28;19965;-49
2023/12/23 14:33:11;;;;;;;;;;;;;;;;;;4982688;28;19926;-50
2023/12/23 14:35:37;;;;;;;;;;;;;;;;;;4985215;28;19960;-52
2023/12/23 14:38:03;;;;;;;;;;;;;;;;;;4987928;28;19914;-44
2023/12/23 14:40:29;;;;;;;;;;;;;;;;;;4985050;28;19914;-44
2023/12/23 14:42:55;;;;;;;;;;;;;;;;;;4987458;28;19914;-47
2023/12/23 14:45:21;;;;;;;;;;;;;;;;;;4984747;28;19929;-45
2023/12/23 14:47:46;;;;;;;;;;;;;;;;;;4987305;28;20001;-44
2023/12/23 14:50:15;;;;;;;;;;;;;;;;;;4981406;28;20396;-48
2023/12/23 14:52:41;;;;;;;;;;;;;;;;;;4987560;28;20316;-46
2023/12/23 14:55:07;;;;;;;;;;;;;;;;;;4986154;28;19914;-45
2023/12/23 14:57:33;;;;;;;;;;;;;;;;;;4986124;28;20446;-47
2023/12/23 14:59:59;;;;;;;;;;;;;;;;;;4975063;28;19918;-45
2023/12/23 15:02:25;;;;;;;;;;;;;;;;;;4986689;28;19938;-44
2023/12/23 15:04:51;;;;;;;;;;;;;;;;;;4987799;28;19914;-44
2023/12/23 15:07:16;;;;;;;;;;;;;;;;;;4987143;28;19918;-44
2023/12/23 15:09:42;;;;;;;;;;;;;;;;;;4984865;28;19914;-46
2023/12/23 15:12:16;;;;;;;;;;;;;;;;;;4986210;28;19913;-48
2023/12/23 15:14:42;;;;;;;;;;;;;;;;;;4986878;28;19921;-46
2023/12/23 15:17:10;;;;;;;;;;;;;;;;;;4987509;28;19913;-45
2023/12/23 15:19:36;;;;;;;;;;;;;;;;;;4984309;28;19918;-45
2023/12/23 15:22:02;;;;;;;;;;;;;;;;;;4984839;28;19921;-43
2023/12/23 15:24:28;;;;;;;;;;;;;;;;;;4984729;28;19925;-45
2023/12/23 15:26:54;;;;;;;;;;;;;;;;;;4985048;28;19918;-44
2023/12/23 15:29:20;;;;;;;;;;;;;;;;;;4986625;28;20004;-48
2023/12/23 15:31:46;;;;;;;;;;;;;;;;;;4986435;28;19914;-48
2023/12/23 15:34:12;;;;;;;;;;;;;;;;;;4973646;28;19985;-47
2023/12/23 15:36:38;;;;;;;;;;;;;;;;;;4982808;28;19921;-45
2023/12/23 15:39:03;;;;;;;;;;;;;;;;;;4985407;28;20029;-46
2023/12/23 15:41:29;;;;;;;;;;;;;;;;;;4987265;28;19914;-46
2023/12/23 15:43:55;;;;;;;;;;;;;;;;;;4983983;28;19918;-48
2023/12/23 15:46:22;;;;;;;;;;;;;;;;;;4986340;28;19914;-45
2023/12/23 15:48:48;;;;;;;;;;;;;;;;;;4977507;28;19914;-46
2023/12/23 15:51:14;;;;;;;;;;;;;;;;;;4985275;28;19921;-45
2023/12/23 15:53:40;;;;;;;;;;;;;;;;;;4989062;28;20403;-46
2023/12/23 15:56:06;;;;;;;;;;;;;;;;;;4984043;28;19971;-43
2023/12/23 15:58:32;;;;;;;;;;;;;;;;;;4988476;28;19926;-45
2023/12/23 16:00:58;;;;;;;;;;;;;;;;;;4989616;28;19924;-45
2023/12/23 16:03:23;;;;;;;;;;;;;;;;;;4987356;28;20016;-47
2023/12/23 16:05:49;;;;;;;;;;;;;;;;;;4983734;28;19922;-45
2023/12/23 16:08:15;;;;;;;;;;;;;;;;;;4974514;28;20015;-46
2023/12/23 16:10:41;;;;;;;;;;;;;;;;;;4988847;28;20390;-44
2023/12/23 16:13:07;;;;;;;;;;;;;;;;;;5002845;28;19914;-45
2023/12/23 16:15:33;;;;;;;;;;;;;;;;;;4988611;28;20407;-43
2023/12/23 16:17:59;;;;;;;;;;;;;;;;;;4988282;28;19960;-45
2023/12/23 16:20:25;;;;;;;;;;;;;;;;;;4989917;28;19914;-45
2023/12/23 16:22:51;;;;;;;;;;;;;;;;;;4989797;28;19914;-45
2023/12/23 16:25:17;;;;;;;;;;;;;;;;;;4989313;28;19918;-45
2023/12/23 16:27:43;;;;;;;;;;;;;;;;;;4991028;28;19968;-45
2023/12/23 16:30:09;;;;;;;;;;;;;;;;;;4990105;28;20013;-45
2023/12/23 16:32:35;;;;;;;;;;;;;;;;;;4986769;28;19918;-48
2023/12/23 16:35:01;;;;;;;;;;;;;;;;;;4997971;28;19913;-45
2023/12/23 16:37:26;;;;;;;;;;;;;;;;;;4988967;28;20020;-46
2023/12/23 16:39:52;;;;;;;;;;;;;;;;;;4982301;28;19920;-44
2023/12/23 16:42:18;;;;;;;;;;;;;;;;;;4987034;28;19922;-44
2023/12/23 16:44:44;;;;;;;;;;;;;;;;;;4986623;28;20411;-45
2023/12/23 16:47:10;;;;;;;;;;;;;;;;;;4987071;28;19972;-46
2023/12/23 16:49:36;;;;;;;;;;;;;;;;;;4987824;28;19918;-45
2023/12/23 16:52:02;;;;;;;;;;;;;;;;;;4988785;28;20038;-46
2023/12/23 16:54:28;;;;;;;;;;;;;;;;;;4987288;28;19914;-45
2023/12/23 16:56:54;;;;;;;;;;;;;;;;;;4980505;28;19964;-47
2023/12/23 16:59:20;;;;;;;;;;;;;;;;;;4975351;28;20376;-46
2023/12/23 17:01:46;;;;;;;;;;;;;;;;;;4983993;28;19922;-45
2023/12/23 17:04:13;;;;;;;;;;;;;;;;;;4983544;28;19910;-47
2023/12/23 17:06:38;;;;;;;;;;;;;;;;;;4985202;28;20060;-48
2023/12/23 17:09:04;;;;;;;;;;;;;;;;;;4985791;28;20520;-48
2023/12/23 17:11:30;;;;;;;;;;;;;;;;;;4984864;28;19914;-47
2023/12/23 17:13:56;;;;;;;;;;;;;;;;;;4989198;28;19917;-46
2023/12/23 17:16:22;;;;;;;;;;;;;;;;;;4985762;28;19914;-45
2023/12/23 17:18:48;;;;;;;;;;;;;;;;;;4988723;28;20355;-45
2023/12/23 17:21:14;;;;;;;;;;;;;;;;;;4981754;28;19920;-44
2023/12/23 17:23:40;;;;;;;;;;;;;;;;;;4984165;28;19921;-45
2023/12/23 17:26:06;;;;;;;;;;;;;;;;;;4984079;28;19985;-44
2023/12/23 17:28:31;;;;;;;;;;;;;;;;;;4979160;28;19925;-49
2023/12/23 17:30:57;;;;;;;;;;;;;;;;;;4979139;28;20722;-45
2023/12/23 17:33:23;;;;;;;;;;;;;;;;;;4974470;28;20593;-44
2023/12/23 17:35:49;;;;;;;;;;;;;;;;;;4981337;28;19918;-45
2023/12/23 17:38:15;;;;;;;;;;;;;;;;;;4988784;28;19921;-43
2023/12/23 17:40:43;;;;;;;;;;;;;;;;;;4994469;28;20072;-43
2023/12/23 17:43:09;;;;;;;;;;;;;;;;;;4977254;28;19932;-43
2023/12/23 17:45:35;;;;;;;;;;;;;;;;;;4984855;28;20004;-42
2023/12/23 17:48:04;;;;;;;;;;;;;;;;;;4989145;28;20420;-46
2023/12/23 17:50:30;;;;;;;;;;;;;;;;;;4988261;28;19941;-45
2023/12/23 17:52:55;;;;;;;;;;;;;;;;;;4981636;28;19922;-46
2023/12/23 17:55:21;;;;;;;;;;;;;;;;;;4972965;28;19922;-47
2023/12/23 17:57:47;;;;;;;;;;;;;;;;;;4981173;28;20375;-48
2023/12/23 18:00:13;;;;;;;;;;;;;;;;;;4983054;28;20495;-46
2023/12/23 18:02:39;;;;;;;;;;;;;;;;;;4975295;28;20372;-45
2023/12/23 18:05:05;;;;;;;;;;;;;;;;;;4986429;28;19973;-47
2023/12/23 18:07:31;;;;;;;;;;;;;;;;;;4986411;28;19918;-44
2023/12/23 18:09:59;;;;;;;;;;;;;;;;;;4986794;28;20206;-47
2023/12/23 18:12:25;;;;;;;;;;;;;;;;;;4987461;28;20273;-48
2023/12/23 18:14:50;;;;;;;;;;;;;;;;;;4983209;28;20001;-45
2023/12/23 18:17:16;;;;;;;;;;;;;;;;;;4987903;28;20413;-46
2023/12/23 18:19:42;;;;;;;;;;;;;;;;;;4986078;28;19968;-45
2023/12/23 18:22:08;;;;;;;;;;;;;;;;;;4987287;28;19960;-44
2023/12/23 18:24:34;;;;;;;;;;;;;;;;;;4987200;28;19924;-44
2023/12/23 18:27:00;;;;;;;;;;;;;;;;;;4988322;28;19961;-46
2023/12/23 18:29:26;;;;;;;;;;;;;;;;;;4985988;28;19917;-45
2023/12/23 18:31:52;;;;;;;;;;;;;;;;;;4986710;28;20012;-48
2023/12/23 18:34:17;;;;;;;;;;;;;;;;;;4986232;28;19916;-44
2023/12/23 18:36:43;;;;;;;;;;;;;;;;;;4984274;28;20132;-45
2023/12/23 18:39:09;;;;;;;;;;;;;;;;;;4985020;28;19917;-45
2023/12/23 18:41:35;;;;;;;;;;;;;;;;;;4986475;28;19925;-46
2023/12/23 18:44:01;;;;;;;;;;;;;;;;;;4987894;28;20070;-44
2023/12/23 18:46:27;;;;;;;;;;;;;;;;;;4985084;28;19910;-44
2023/12/23 18:48:53;;;;;;;;;;;;;;;;;;4978639;28;19914;-46
2023/12/23 18:51:19;;;;;;;;;;;;;;;;;;4986141;28;20301;-44
2023/12/23 18:53:45;;;;;;;;;;;;;;;;;;4985914;28;19924;-46
2023/12/23 18:56:11;;;;;;;;;;;;;;;;;;4987595;28;20224;-45
2023/12/23 18:58:37;;;;;;;;;;;;;;;;;;4983828;28;19914;-45
2023/12/23 19:01:03;;;;;;;;;;;;;;;;;;4978688;28;19953;-48
2023/12/23 19:03:29;;;;;;;;;;;;;;;;;;4979881;28;19913;-44
2023/12/23 19:05:54;;;;;;;;;;;;;;;;;;4983267;28;19922;-45
2023/12/23 19:08:21;;;;;;;;;;;;;;;;;;4983049;28;20291;-48
2023/12/23 19:10:48;;;;;;;;;;;;;;;;;;4984427;28;19961;-48
2023/12/23 19:13:14;;;;;;;;;;;;;;;;;;4979109;28;19956;-44
2023/12/23 19:15:40;;;;;;;;;;;;;;;;;;4983944;28;19953;-46
2023/12/23 19:18:06;;;;;;;;;;;;;;;;;;5000504;28;19914;-46
2023/12/23 19:20:32;;;;;;;;;;;;;;;;;;4984568;28;20439;-44
2023/12/23 19:22:58;;;;;;;;;;;;;;;;;;4984057;28;19953;-46
2023/12/23 19:25:24;;;;;;;;;;;;;;;;;;4984485;28;20350;-46
2023/12/23 19:27:50;;;;;;;;;;;;;;;;;;4984922;28;20412;-45
2023/12/23 19:30:16;;;;;;;;;;;;;;;;;;4986809;28;20336;-45
2023/12/23 19:32:41;;;;;;;;;;;;;;;;;;4983597;28;20396;-45
2023/12/23 19:35:07;;;;;;;;;;;;;;;;;;4990938;28;19910;-45
2023/12/23 19:37:34;;;;;;;;;;;;;;;;;;4990237;28;20484;-44
2023/12/23 19:40:00;;;;;;;;;;;;;;;;;;4990781;28;20277;-45
2023/12/23 19:42:26;;;;;;;;;;;;;;;;;;4988497;28;19964;-45
2023/12/23 19:44:52;;;;;;;;;;;;;;;;;;4989657;28;19922;-46
2023/12/23 19:47:18;;;;;;;;;;;;;;;;;;4987996;28;20377;-46
2023/12/23 19:49:43;;;;;;;;;;;;;;;;;;4988519;28;19925;-43
2023/12/23 19:52:09;;;;;;;;;;;;;;;;;;4984277;28;19914;-47
2023/12/23 19:54:35;;;;;;;;;;;;;;;;;;4989145;28;20024;-45
2023/12/23 19:57:01;;;;;;;;;;;;;;;;;;4996311;28;19913;-46
2023/12/23 19:59:27;;;;;;;;;;;;;;;;;;4988115;28;19915;-44
2023/12/23 20:01:53;;;;;;;;;;;;;;;;;;4991782;28;20508;-43
2023/12/23 20:04:19;;;;;;;;;;;;;;;;;;4991478;28;19910;-45
2023/12/23 20:06:45;;;;;;;;;;;;;;;;;;4991927;28;19914;-44
2023/12/23 20:09:11;;;;;;;;;;;;;;;;;;4991751;28;20074;-45
2023/12/23 20:11:37;;;;;;;;;;;;;;;;;;4987309;28;19922;-46
2023/12/23 20:14:03;;;;;;;;;;;;;;;;;;4973063;28;19931;-45
2023/12/23 20:16:29;;;;;;;;;;;;;;;;;;4988570;28;20111;-48
2023/12/23 20:18:55;;;;;;;;;;;;;;;;;;4990194;28;19914;-45
2023/12/23 20:21:21;;;;;;;;;;;;;;;;;;4988880;28;19910;-45
2023/12/23 20:23:47;;;;;;;;;;;;;;;;;;4989761;28;20000;-44
2023/12/23 20:26:13;;;;;;;;;;;;;;;;;;4981179;28;19914;-47
2023/12/23 20:28:39;;;;;;;;;;;;;;;;;;4987134;28;19917;-47
2023/12/23 20:31:05;;;;;;;;;;;;;;;;;;4990426;28;19910;-45
2023/12/23 20:33:31;;;;;;;;;;;;;;;;;;4987515;28;20129;-45
2023/12/23 20:35:56;;;;;;;;;;;;;;;;;;4990138;28;19914;-45
2023/12/23 20:38:22;;;;;;;;;;;;;;;;;;4987954;28;20004;-48
2023/12/23 20:40:48;;;;;;;;;;;;;;;;;;4989183;28;20412;-46
2023/12/23 20:43:14;;;;;;;;;;;;;;;;;;4988373;28;19960;-47
2023/12/23 20:45:40;;;;;;;;;;;;;;;;;;4989037;28;20570;-44
2023/12/23 20:48:06;;;;;;;;;;;;;;;;;;4987268;28;19948;-45
2023/12/23 20:50:33;;;;;;;;;;;;;;;;;;4987103;28;19917;-44
2023/12/23 20:52:59;;;;;;;;;;;;;;;;;;4988528;28;19953;-47
2023/12/23 20:55:25;;;;;;;;;;;;;;;;;;4986875;28;20154;-44
2023/12/23 20:57:52;;;;;;;;;;;;;;;;;;4987391;28;19914;-45
2023/12/23 21:00:20;;;;;;;;;;;;;;;;;;4987501;28;19917;-45
2023/12/23 21:02:46;;;;;;;;;;;;;;;;;;4988741;28;19913;-47
2023/12/23 21:05:12;;;;;;;;;;;;;;;;;;4981052;28;19914;-46
2023/12/23 21:07:38;;;;;;;;;;;;;;;;;;4972008;28;19981;-45
2023/12/23 21:10:04;;;;;;;;;;;;;;;;;;4975279;28;19914;-43
2023/12/23 21:12:30;;;;;;;;;;;;;;;;;;4988616;28;20447;-45
2023/12/23 21:14:56;;;;;;;;;;;;;;;;;;4970336;28;20228;-48
2023/12/23 21:17:22;;;;;;;;;;;;;;;;;;4968216;28;19921;-49
2023/12/23 21:19:48;;;;;;;;;;;;;;;;;;4987735;28;19914;-45
2023/12/23 21:22:14;;;;;;;;;;;;;;;;;;4988521;28;19957;-44
2023/12/23 21:24:40;;;;;;;;;;;;;;;;;;4973560;28;19939;-44
2023/12/23 21:27:06;;;;;;;;;;;;;;;;;;4986669;28;19918;-46
2023/12/23 21:29:32;;;;;;;;;;;;;;;;;;4988374;28;20491;-47
2023/12/23 21:31:58;;;;;;;;;;;;;;;;;;4988235;28;20300;-45
2023/12/23 21:34:24;;;;;;;;;;;;;;;;;;4988103;28;19918;-47
2023/12/23 21:36:50;;;;;;;;;;;;;;;;;;4982667;28;20013;-43
2023/12/23 21:39:16;;;;;;;;;;;;;;;;;;4981901;28;19918;-45
2023/12/23 21:41:43;;;;;;;;;;;;;;;;;;4986148;28;19921;-44
2023/12/23 21:44:08;;;;;;;;;;;;;;;;;;4986286;28;19917;-44
2023/12/23 21:46:34;;;;;;;;;;;;;;;;;;4984160;28;19918;-45
2023/12/23 21:49:00;;;;;;;;;;;;;;;;;;4985468;28;19941;-47
2023/12/23 21:51:26;;;;;;;;;;;;;;;;;;4986829;28;19914;-47
2023/12/23 21:53:52;;;;;;;;;;;;;;;;;;4987365;28;19998;-47
2023/12/23 21:56:18;;;;;;;;;;;;;;;;;;4985458;28;19920;-43
2023/12/23 21:58:44;;;;;;;;;;;;;;;;;;4986341;28;20581;-47
2023/12/23 22:01:10;;;;;;;;;;;;;;;;;;4987218;28;19957;-46
2023/12/23 22:03:36;;;;;;;;;;;;;;;;;;4988121;28;20185;-45
2023/12/23 22:06:02;;;;;;;;;;;;;;;;;;4987498;28;19918;-44
2023/12/23 22:08:28;;;;;;;;;;;;;;;;;;4986001;28;19972;-45
2023/12/23 22:10:54;;;;;;;;;;;;;;;;;;4987935;28;20396;-48
2023/12/23 22:13:20;;;;;;;;;;;;;;;;;;4987205;28;19949;-44
2023/12/23 22:15:45;;;;;;;;;;;;;;;;;;4987349;28;19921;-48
2023/12/23 22:18:11;;;;;;;;;;;;;;;;;;4987350;28;19910;-44
2023/12/23 22:20:37;;;;;;;;;;;;;;;;;;4985252;28;19914;-45
2023/12/23 22:23:03;;;;;;;;;;;;;;;;;;4986626;28;20008;-45
2023/12/23 22:25:30;;;;;;;;;;;;;;;;;;4987658;28;20349;-45
2023/12/23 22:27:57;;;;;;;;;;;;;;;;;;4985998;28;19972;-44
2023/12/23 22:30:22;;;;;;;;;;;;;;;;;;4984822;28;19918;-46
2023/12/23 22:32:48;;;;;;;;;;;;;;;;;;4983823;28;20003;-47
2023/12/23 22:35:14;;;;;;;;;;;;;;;;;;4987305;28;19909;-47
2023/12/23 22:37:40;;;;;;;;;;;;;;;;;;4987627;28;19956;-45